Umar1 — 9HA2498 — position and weather

sailwx.info

Track history (hours):
 
Tides and Currents Weather Stations Pressure Air Temp Water Temp Dewpoint Dewpoint Depression Visibility Wind Speed Wind Dir Waves Ship Positions

Umar1

Last reported at 2015-Mar-03 02:13 UTC. Time now 2015-Mar-05 02:42 UTC.
Position N 39°06' W 009°57'.

Length 100 m; draft 6.5 m.

Type: Ship (hazmat cat D). MMSI: 248751000.

Date/timePositionNaut miles runAvg speedWind from/ knotsBaromVisibWave heightAir tempDewpointWater temp
2015-Mar-03 02:13N 39°06' W 009°57'7 9.1
2015-Mar-03 01:27N 38°59' W 009°57'8 9.3
2015-Mar-03 00:33N 38°51' W 009°57'9 9.1
2015-Mar-02 23:33N 38°42' W 009°57'8 7.3
2015-Mar-02 22:31N 38°35' W 009°55'9 8.9
2015-Mar-02 21:33N 38°26' W 009°52'10 8.6
2015-Mar-02 20:21N 38°16' W 009°49'10 8.3
2015-Mar-02 19:06N 38°06' W 009°46'5 8.8
2015-Mar-02 18:33N 38°01' W 009°45'9 8.7
2015-Mar-02 17:33N 37°52' W 009°44'9 8.6
2015-Mar-02 16:32N 37°44' W 009°41'9 8.4
2015-Mar-02 15:31N 37°36' W 009°39'9 8.3
2015-Mar-02 14:30N 37°27' W 009°36'9 8.5
2015-Mar-02 13:29N 37°19' W 009°32'51 7.3
2015-Mar-02 06:26N 36°39' W 008°52'8 9.0
2015-Mar-02 05:33N 36°40' W 008°43'9 9.3
2015-Mar-02 04:33N 36°41' W 008°31'10 9.4
2015-Mar-02 03:28N 36°41' W 008°18'9 9.4
2015-Mar-02 02:31N 36°42' W 008°07'131 3.1
2015-Feb-28 08:13N 35°58' W 005°35'7 8.2
2015-Feb-28 07:23N 35°59' W 005°27'5 6.5
2015-Feb-28 06:33N 35°58' W 005°20'4 4.1
2015-Feb-28 05:32N 35°54' W 005°19'0 0.0
2015-Feb-28 04:32N 35°54' W 005°19'0 0.3
2015-Feb-28 03:33N 35°54' W 005°19'5 5.3
2015-Feb-28 02:33N 35°57' W 005°23'  
2015-Feb-23 21:29N 35°59' W 005°32'5 5.1
2015-Feb-23 20:33N 36°00' W 005°26'7 7.2
2015-Feb-23 19:33N 36°07' W 005°23'3 0.2
2015-Feb-23 03:14N 36°10' W 005°25'0 0.0
2015-Feb-23 01:14N 36°10' W 005°25'0 0.0
2015-Feb-23 00:14N 36°10' W 005°25'0 0.0
2015-Feb-22 23:20N 36°10' W 005°25'0 0.0
2015-Feb-22 22:14N 36°10' W 005°25'0 0.0
2015-Feb-22 16:20N 36°10' W 005°25'0 0.0
2015-Feb-22 12:32N 36°10' W 005°25'0 0.0
2015-Feb-22 07:32N 36°10' W 005°25'0 0.0
2015-Feb-22 02:11N 36°10' W 005°25'0 0.0
2015-Feb-22 00:23N 36°10' W 005°25'0 0.0
2015-Feb-21 22:26N 36°10' W 005°25'0 0.0
2015-Feb-21 20:14N 36°10' W 005°25'0 0.0
2015-Feb-21 19:32N 36°10' W 005°25'0 0.0
2015-Feb-21 17:26N 36°10' W 005°25'0 0.0
2015-Feb-21 16:14N 36°10' W 005°25'0 0.0
2015-Feb-21 15:32N 36°10' W 005°25'0 0.0
2015-Feb-21 14:20N 36°10' W 005°25'1 0.3
2015-Feb-21 09:20N 36°09' W 005°24'5 7.0
2015-Feb-21 08:33N 36°04' W 005°22'7 6.9
2015-Feb-21 07:32N 35°58' W 005°28'  
Track history (hours):
 
Tides and Currents Weather Stations Pressure Air Temp Water Temp Dewpoint Dewpoint Depression Visibility Wind Speed Wind Dir Waves Ship Positions

Umar1

Last reported at 2015-Mar-03 02:13 UTC. Time now 2015-Mar-05 02:42 UTC.
Position N 39°06' W 009°57'.

Length 100 m; draft 6.5 m.

Type: Ship (hazmat cat D). MMSI: 248751000.

Date/timePositionNaut miles runAvg speedWind from/ knotsBaromVisibWave heightAir tempDewpointWater temp
2015-Mar-03 02:13N 39°06' W 009°57'7 9.1
2015-Mar-03 01:27N 38°59' W 009°57'8 9.3
2015-Mar-03 00:33N 38°51' W 009°57'9 9.1
2015-Mar-02 23:33N 38°42' W 009°57'8 7.3
2015-Mar-02 22:31N 38°35' W 009°55'9 8.9
2015-Mar-02 21:33N 38°26' W 009°52'10 8.6
2015-Mar-02 20:21N 38°16' W 009°49'10 8.3
2015-Mar-02 19:06N 38°06' W 009°46'5 8.8
2015-Mar-02 18:33N 38°01' W 009°45'9 8.7
2015-Mar-02 17:33N 37°52' W 009°44'9 8.6
2015-Mar-02 16:32N 37°44' W 009°41'9 8.4
2015-Mar-02 15:31N 37°36' W 009°39'9 8.3
2015-Mar-02 14:30N 37°27' W 009°36'9 8.5
2015-Mar-02 13:29N 37°19' W 009°32'51 7.3
2015-Mar-02 06:26N 36°39' W 008°52'8 9.0
2015-Mar-02 05:33N 36°40' W 008°43'9 9.3
2015-Mar-02 04:33N 36°41' W 008°31'10 9.4
2015-Mar-02 03:28N 36°41' W 008°18'9 9.4
2015-Mar-02 02:31N 36°42' W 008°07'131 3.1
2015-Feb-28 08:13N 35°58' W 005°35'7 8.2
2015-Feb-28 07:23N 35°59' W 005°27'5 6.5
2015-Feb-28 06:33N 35°58' W 005°20'4 4.1
2015-Feb-28 05:32N 35°54' W 005°19'0 0.0
2015-Feb-28 04:32N 35°54' W 005°19'0 0.3
2015-Feb-28 03:33N 35°54' W 005°19'5 5.3
2015-Feb-28 02:33N 35°57' W 005°23'  
2015-Feb-23 21:29N 35°59' W 005°32'5 5.1
2015-Feb-23 20:33N 36°00' W 005°26'7 7.2
2015-Feb-23 19:33N 36°07' W 005°23'3 0.2
2015-Feb-23 03:14N 36°10' W 005°25'0 0.0
2015-Feb-23 01:14N 36°10' W 005°25'0 0.0
2015-Feb-23 00:14N 36°10' W 005°25'0 0.0
2015-Feb-22 23:20N 36°10' W 005°25'0 0.0
2015-Feb-22 22:14N 36°10' W 005°25'0 0.0
2015-Feb-22 16:20N 36°10' W 005°25'0 0.0
2015-Feb-22 12:32N 36°10' W 005°25'0 0.0
2015-Feb-22 07:32N 36°10' W 005°25'0 0.0
2015-Feb-22 02:11N 36°10' W 005°25'0 0.0
2015-Feb-22 00:23N 36°10' W 005°25'0 0.0
2015-Feb-21 22:26N 36°10' W 005°25'0 0.0
2015-Feb-21 20:14N 36°10' W 005°25'0 0.0
2015-Feb-21 19:32N 36°10' W 005°25'0 0.0
2015-Feb-21 17:26N 36°10' W 005°25'0 0.0
2015-Feb-21 16:14N 36°10' W 005°25'0 0.0
2015-Feb-21 15:32N 36°10' W 005°25'0 0.0
2015-Feb-21 14:20N 36°10' W 005°25'1 0.3
2015-Feb-21 09:20N 36°09' W 005°24'5 7.0
2015-Feb-21 08:33N 36°04' W 005°22'7 6.9
2015-Feb-21 07:32N 35°58' W 005°28'  

Dump ship's entire track history